createdAt,value
2023-02-14T00:01:20.946Z,75.00
2023-02-14T00:03:49.446Z,92.40
2023-02-14T00:06:16.736Z,76.88
2023-02-14T00:08:46.772Z,78.00
2023-02-14T00:11:15.614Z,78.00
2023-02-14T00:14:05.475Z,78.18
2023-02-14T00:16:32.953Z,76.10
2023-02-14T00:19:06.286Z,79.75
2023-02-14T00:21:36.179Z,79.35
2023-02-14T00:24:06.188Z,74.25
2023-02-14T00:26:33.261Z,76.75
2023-02-14T00:29:00.654Z,77.70
2023-02-14T00:31:27.951Z,83.55
2023-02-14T00:33:55.987Z,87.05
2023-02-14T00:36:23.098Z,85.93
2023-02-14T00:38:51.432Z,87.53
2023-02-14T00:41:21.029Z,79.55
2023-02-14T00:43:50.025Z,84.97
2023-02-14T00:46:19.608Z,80.40
2023-02-14T00:48:47.182Z,81.85
2023-02-14T00:51:14.466Z,88.88
2023-02-14T00:53:42.157Z,91.93
2023-02-14T00:56:09.153Z,88.40
2023-02-14T00:58:36.821Z,87.38
2023-02-14T01:01:04.652Z,84.43
2023-02-14T01:03:32.135Z,80.50
2023-02-14T01:05:59.242Z,92.10
2023-02-14T01:08:26.632Z,90.43
2023-02-14T01:10:54.137Z,94.25
2023-02-14T01:13:21.274Z,82.55
2023-02-14T01:15:50.758Z,90.38
2023-02-14T01:18:20.954Z,98.55
2023-02-14T01:20:48.935Z,95.80
2023-02-14T01:23:15.941Z,94.05
2023-02-14T01:25:42.964Z,108.18
2023-02-14T01:28:10.160Z,97.57
2023-02-14T01:30:37.492Z,106.38
2023-02-14T01:33:04.876Z,102.25
2023-02-14T01:35:38.169Z,106.72
2023-02-14T01:38:05.103Z,114.20
2023-02-14T01:40:32.017Z,100.18
2023-02-14T01:42:59.929Z,101.55
2023-02-14T01:45:28.569Z,97.75
2023-02-14T01:47:57.141Z,101.90
2023-02-14T01:50:33.157Z,108.28
2023-02-14T01:53:04.466Z,107.50
2023-02-14T01:55:35.115Z,96.75
2023-02-14T01:58:20.578Z,95.45
2023-02-14T02:00:57.362Z,102.15
2023-02-14T02:03:39.302Z,100.00
2023-02-14T02:06:10.623Z,99.85
2023-02-14T02:08:43.734Z,93.47
2023-02-14T02:11:12.308Z,98.25
2023-02-14T02:13:39.343Z,94.40
2023-02-14T02:16:31.502Z,87.93
2023-02-14T02:19:26.601Z,99.93
2023-02-14T02:21:59.788Z,98.35
2023-02-14T02:25:06.151Z,90.82
2023-02-14T02:27:58.128Z,92.78
2023-02-14T02:30:43.998Z,97.70
2023-02-14T02:33:34.125Z,88.63
2023-02-14T02:36:27.111Z,88.35
2023-02-14T02:39:08.538Z,94.07
2023-02-14T02:42:10.976Z,87.38
2023-02-14T02:44:52.216Z,86.03
2023-02-14T02:47:32.188Z,93.68
2023-02-14T02:50:48.449Z,91.18
2023-02-14T02:53:50.798Z,94.00
2023-02-14T02:56:46.130Z,90.82
2023-02-14T02:59:19.972Z,88.57
2023-02-14T03:02:25.317Z,98.07
2023-02-14T03:04:56.553Z,102.68
2023-02-14T03:07:36.809Z,98.28
2023-02-14T03:10:13.299Z,97.55
2023-02-14T03:12:43.262Z,96.60
2023-02-14T03:15:25.689Z,106.18
2023-02-14T03:18:31.817Z,108.78
2023-02-14T03:21:06.771Z,101.55
2023-02-14T03:24:02.152Z,110.25
2023-02-14T03:26:38.149Z,99.40
2023-02-14T03:29:30.821Z,109.78
2023-02-14T03:32:27.993Z,105.97
2023-02-14T03:35:11.668Z,134.60
2023-02-14T03:38:00.990Z,118.45
2023-02-14T03:40:34.395Z,125.50
2023-02-14T03:43:07.870Z,108.00
2023-02-14T03:45:49.497Z,110.60
2023-02-14T03:48:18.293Z,108.35
2023-02-14T03:50:48.994Z,103.65
2023-02-14T03:53:22.722Z,106.82
2023-02-14T03:55:55.549Z,110.25
2023-02-14T03:58:36.887Z,118.55
2023-02-14T04:01:22.893Z,122.40
2023-02-14T04:03:53.134Z,125.43
2023-02-14T04:06:21.246Z,139.88
2023-02-14T04:08:48.426Z,163.18
2023-02-14T04:11:15.845Z,117.93
2023-02-14T04:13:43.104Z,107.95
2023-02-14T04:16:10.130Z,113.25
2023-02-14T04:18:55.985Z,120.90
2023-02-14T04:21:23.105Z,121.65
2023-02-14T04:23:50.285Z,119.07
2023-02-14T04:26:17.720Z,110.05
2023-02-14T04:28:44.578Z,103.95
2023-02-14T04:31:11.774Z,99.50
2023-02-14T04:33:39.609Z,106.22
2023-02-14T04:36:06.981Z,120.60
2023-02-14T04:38:33.999Z,106.22
2023-02-14T04:41:01.883Z,99.70
2023-02-14T04:43:29.160Z,100.07
2023-02-14T04:45:56.182Z,105.85
2023-02-14T04:48:23.189Z,94.53
2023-02-14T04:50:55.161Z,94.47
2023-02-14T04:53:22.952Z,98.78
2023-02-14T04:55:50.785Z,98.68
2023-02-14T04:58:18.349Z,97.75
2023-02-14T05:00:45.450Z,95.95
2023-02-14T05:03:12.814Z,94.72
2023-02-14T05:05:39.787Z,99.60
2023-02-14T05:08:07.158Z,94.57
2023-02-14T05:10:35.103Z,95.65
2023-02-14T05:13:02.217Z,103.40
2023-02-14T05:15:29.257Z,103.85
2023-02-14T05:17:56.286Z,109.38
2023-02-14T05:20:23.399Z,107.22
2023-02-14T05:22:50.679Z,103.85
2023-02-14T05:25:17.929Z,114.28
2023-02-14T05:27:46.160Z,110.22
2023-02-14T05:30:13.949Z,99.90
2023-02-14T05:32:40.975Z,108.40
2023-02-14T05:35:08.387Z,115.93
2023-02-14T05:37:35.477Z,111.65
2023-02-14T05:40:02.380Z,109.70
2023-02-14T05:42:29.343Z,113.93
2023-02-14T05:44:56.251Z,115.00
2023-02-14T05:47:23.354Z,122.93
2023-02-14T05:49:50.320Z,109.18
2023-02-14T05:52:17.368Z,114.03
2023-02-14T05:54:44.324Z,117.22
2023-02-14T05:57:11.278Z,104.10
2023-02-14T05:59:39.596Z,117.13
2023-02-14T06:02:06.783Z,111.75
2023-02-14T06:04:33.849Z,110.90
2023-02-14T06:07:01.278Z,114.30
2023-02-14T06:09:28.566Z,105.30
2023-02-14T06:11:55.909Z,100.30
2023-02-14T06:14:23.312Z,104.70
2023-02-14T06:16:50.340Z,102.18
2023-02-14T06:19:17.309Z,101.68
2023-02-14T06:21:44.507Z,112.85
2023-02-14T06:24:11.402Z,109.70
2023-02-14T06:26:38.449Z,110.70
2023-02-14T06:29:05.641Z,116.55
2023-02-14T06:31:33.567Z,104.18
2023-02-14T06:34:00.839Z,107.40
2023-02-14T06:36:27.963Z,108.22
2023-02-14T06:38:54.864Z,107.05
2023-02-14T06:41:21.931Z,110.05
2023-02-14T06:43:49.466Z,116.53
2023-02-14T06:46:17.976Z,104.72
2023-02-14T06:48:45.115Z,102.32
2023-02-14T06:51:13.061Z,103.70
2023-02-14T06:53:40.522Z,109.22
2023-02-14T06:56:07.783Z,97.95
2023-02-14T06:58:35.388Z,106.63
2023-02-14T07:01:02.932Z,113.65
2023-02-14T07:03:31.567Z,122.63
2023-02-14T07:06:00.552Z,106.72
2023-02-14T07:08:28.595Z,108.03
2023-02-14T07:10:57.597Z,107.30
2023-02-14T07:13:25.880Z,119.55
2023-02-14T07:15:53.021Z,102.88
2023-02-14T07:18:20.044Z,120.88
2023-02-14T07:20:49.553Z,120.80
2023-02-14T07:23:17.023Z,117.00
2023-02-14T07:25:44.144Z,125.65
2023-02-14T07:28:11.278Z,113.75
2023-02-14T07:30:38.560Z,113.57
2023-02-14T07:33:05.897Z,115.10
2023-02-14T07:35:33.259Z,122.78
2023-02-14T07:38:00.321Z,117.10
2023-02-14T07:40:29.977Z,115.35
2023-02-14T07:42:58.588Z,116.55
2023-02-14T07:45:25.831Z,111.57
2023-02-14T07:47:55.100Z,117.18
2023-02-14T07:50:23.419Z,116.85
2023-02-14T07:52:50.709Z,120.70
2023-02-14T07:55:19.391Z,115.70
2023-02-14T07:57:49.052Z,113.18
2023-02-14T08:00:16.460Z,106.75
2023-02-14T08:02:43.421Z,120.25
2023-02-14T08:05:10.945Z,112.38
2023-02-14T08:07:37.869Z,116.07
2023-02-14T08:10:05.562Z,98.97
2023-02-14T08:12:50.962Z,134.35
2023-02-14T08:15:36.867Z,124.80
2023-02-14T08:18:04.205Z,107.80
2023-02-14T08:20:31.108Z,116.07
2023-02-14T08:22:58.411Z,113.45
2023-02-14T08:25:25.553Z,111.88
2023-02-14T08:27:52.671Z,122.13
2023-02-14T08:30:19.705Z,125.03
2023-02-14T08:32:47.148Z,119.53
2023-02-14T08:35:14.177Z,126.90
2023-02-14T08:37:41.666Z,122.93
2023-02-14T08:40:09.375Z,122.00
2023-02-14T08:42:36.383Z,126.78
2023-02-14T08:45:03.510Z,117.22
2023-02-14T08:47:35.881Z,120.47
2023-02-14T08:50:03.922Z,126.65
2023-02-14T08:52:30.984Z,122.47
2023-02-14T08:54:57.913Z,119.68
2023-02-14T08:57:25.312Z,118.80
2023-02-14T08:59:53.605Z,110.95
2023-02-14T09:02:20.786Z,119.60
2023-02-14T09:04:47.950Z,117.45
2023-02-14T09:07:14.995Z,118.03
2023-02-14T09:09:42.529Z,122.22
2023-02-14T09:12:10.904Z,116.07
2023-02-14T09:14:46.404Z,120.88
2023-02-14T09:17:17.030Z,121.18
2023-02-14T09:19:44.295Z,118.70
2023-02-14T09:22:12.203Z,116.15
2023-02-14T09:24:40.387Z,122.75
2023-02-14T09:27:07.817Z,119.90
2023-02-14T09:29:35.496Z,123.68
2023-02-14T09:32:03.490Z,114.40
2023-02-14T09:34:54.701Z,122.22
2023-02-14T09:37:22.172Z,119.78
2023-02-14T09:39:50.722Z,117.82
2023-02-14T09:42:45.351Z,116.55
2023-02-14T09:45:23.706Z,113.20
2023-02-14T09:48:23.812Z,123.50
2023-02-14T09:51:23.490Z,119.88
2023-02-14T09:53:52.587Z,114.30
2023-02-14T09:56:54.145Z,114.85
2023-02-14T09:59:50.448Z,124.32
2023-02-14T10:05:24.200Z,118.22
2023-02-14T10:08:04.838Z,121.22
2023-02-14T10:10:40.304Z,117.32
2023-02-14T10:13:17.981Z,120.57
2023-02-14T10:16:31.007Z,120.25
2023-02-14T10:19:29.904Z,117.63
2023-02-14T10:22:29.513Z,111.05
2023-02-14T10:25:18.888Z,112.38
2023-02-14T10:27:46.985Z,107.05
2023-02-14T10:30:15.837Z,106.05
2023-02-14T10:32:57.075Z,106.05
2023-02-14T10:35:51.103Z,104.25
2023-02-14T10:38:18.218Z,108.63
2023-02-14T10:41:21.187Z,101.88
2023-02-14T10:43:49.173Z,99.32
2023-02-14T10:46:34.674Z,99.50
2023-02-14T10:49:36.744Z,98.93
2023-02-14T10:52:27.249Z,95.45
2023-02-14T10:54:57.889Z,92.15
2023-02-14T10:57:44.515Z,91.15
2023-02-14T11:00:15.399Z,93.45
2023-02-14T11:02:46.409Z,91.22
2023-02-14T11:05:34.119Z,86.35
2023-02-14T11:08:02.225Z,87.65
2023-02-14T11:10:34.578Z,88.45
2023-02-14T11:13:01.953Z,77.72
2023-02-14T11:15:39.956Z,86.75
2023-02-14T11:18:31.957Z,84.35
2023-02-14T11:21:24.821Z,84.82
2023-02-14T11:23:51.981Z,82.35
2023-02-14T11:26:30.624Z,82.53
2023-02-14T11:29:04.921Z,81.47
2023-02-14T11:31:36.923Z,81.50
2023-02-14T11:34:16.648Z,75.97
2023-02-14T11:36:45.119Z,80.40
2023-02-14T11:39:35.313Z,73.25
2023-02-14T11:42:05.398Z,80.10
2023-02-14T11:44:38.398Z,80.55
2023-02-14T11:47:29.974Z,76.68
2023-02-14T11:50:06.977Z,74.93
2023-02-14T11:52:40.670Z,81.53
2023-02-14T11:55:07.991Z,75.30
2023-02-14T11:57:41.737Z,78.00
2023-02-14T12:00:18.852Z,80.10
2023-02-14T12:02:51.897Z,78.28
2023-02-14T12:05:31.142Z,82.10
2023-02-14T12:08:02.336Z,83.00
2023-02-14T12:10:32.168Z,75.22
2023-02-14T12:13:06.804Z,81.32
2023-02-14T12:15:53.142Z,78.93
2023-02-14T12:18:41.868Z,85.85
2023-02-14T12:21:13.149Z,84.13
2023-02-14T12:23:50.862Z,76.35
2023-02-14T12:26:38.535Z,81.80
2023-02-14T12:29:17.536Z,76.30
2023-02-14T12:31:46.658Z,78.28
2023-02-14T12:34:16.102Z,83.43
2023-02-14T12:36:58.247Z,78.20
2023-02-14T12:39:36.606Z,77.60
2023-02-14T12:42:18.831Z,84.55
2023-02-14T12:44:59.287Z,79.45
2023-02-14T12:48:01.535Z,71.07
2023-02-14T12:50:59.920Z,82.00
2023-02-14T12:54:03.463Z,76.85
2023-02-14T12:56:49.534Z,77.07
2023-02-14T12:59:25.626Z,77.35
2023-02-14T13:02:04.646Z,76.40
2023-02-14T13:05:00.931Z,75.97
2023-02-14T13:07:40.358Z,75.15
2023-02-14T13:10:18.948Z,74.28
2023-02-14T13:12:57.088Z,74.93
2023-02-14T13:15:35.342Z,74.53
2023-02-14T13:18:19.892Z,81.78
2023-02-14T13:21:00.257Z,77.15
2023-02-14T13:23:37.761Z,75.15
2023-02-14T13:26:08.211Z,71.38
2023-02-14T13:28:37.639Z,76.75
2023-02-14T13:31:05.304Z,77.05
2023-02-14T13:33:43.805Z,73.90
2023-02-14T13:36:13.890Z,78.22
2023-02-14T13:38:47.326Z,81.40
2023-02-14T13:41:18.868Z,84.68
2023-02-14T13:44:02.838Z,77.07
2023-02-14T13:46:32.945Z,78.38
2023-02-14T13:49:06.588Z,73.85
2023-02-14T13:52:09.938Z,71.80
2023-02-14T13:55:06.066Z,75.63
2023-02-14T13:57:39.649Z,76.88
2023-02-14T14:00:21.746Z,77.13
2023-02-14T14:02:54.359Z,77.47
2023-02-14T14:05:30.754Z,80.13
2023-02-14T14:08:30.378Z,82.95
2023-02-14T14:11:00.496Z,80.00
2023-02-14T14:13:42.577Z,80.50
2023-02-14T14:16:39.415Z,77.80
2023-02-14T14:19:18.977Z,77.97
2023-02-14T14:22:01.931Z,81.28
2023-02-14T14:24:35.455Z,80.75
2023-02-14T14:27:16.181Z,76.30
2023-02-14T14:29:55.898Z,80.80
2023-02-14T14:32:35.003Z,82.65
2023-02-14T14:35:25.416Z,82.72
2023-02-14T14:37:58.516Z,81.88
2023-02-14T14:40:34.936Z,87.80
2023-02-14T14:43:26.185Z,82.80
2023-02-14T14:45:56.510Z,78.78
2023-02-14T14:48:42.582Z,81.72
2023-02-14T14:51:23.709Z,86.22
2023-02-14T14:53:54.676Z,81.60
2023-02-14T14:56:24.670Z,80.32
2023-02-14T14:58:54.388Z,86.97
2023-02-14T15:01:40.240Z,99.32
2023-02-14T15:06:49.170Z,82.45
2023-02-14T15:09:24.326Z,81.22
2023-02-14T15:12:12.050Z,84.57
2023-02-14T15:14:45.469Z,85.07
2023-02-14T15:17:21.947Z,85.45
2023-02-14T15:20:01.099Z,82.60
2023-02-14T15:22:54.824Z,82.22
2023-02-14T15:25:44.949Z,91.25
2023-02-14T15:28:27.584Z,84.22
2023-02-14T15:31:14.406Z,87.10
2023-02-14T15:33:43.556Z,94.97
2023-02-14T15:36:22.076Z,86.22
2023-02-14T15:38:49.524Z,87.90
2023-02-14T15:41:17.548Z,88.00
2023-02-14T15:43:51.986Z,88.20
2023-02-14T15:46:33.364Z,79.63
2023-02-14T15:49:05.537Z,85.28
2023-02-14T15:51:36.544Z,85.30
2023-02-14T15:54:29.741Z,85.60
2023-02-14T15:56:58.833Z,94.88
2023-02-14T15:59:34.266Z,86.10
2023-02-14T16:02:36.259Z,86.50
2023-02-14T16:05:18.696Z,85.85
2023-02-14T16:08:02.080Z,84.45
2023-02-14T16:10:32.941Z,90.10
2023-02-14T16:13:03.230Z,87.40
2023-02-14T16:15:36.835Z,84.82
2023-02-14T16:18:17.406Z,91.15
2023-02-14T16:20:47.465Z,96.30
2023-02-14T16:23:28.136Z,93.20
2023-02-14T16:25:59.068Z,89.03
2023-02-14T16:28:30.932Z,94.40
2023-02-14T16:31:00.678Z,97.55
2023-02-14T16:33:30.901Z,94.30
2023-02-14T16:36:12.795Z,105.40
2023-02-14T16:38:45.194Z,103.18
2023-02-14T16:41:19.372Z,99.68
2023-02-14T16:43:47.700Z,102.15
2023-02-14T16:46:21.713Z,98.75
2023-02-14T16:48:52.942Z,93.60
2023-02-14T16:51:23.818Z,101.30
2023-02-14T16:53:51.321Z,104.10
2023-02-14T16:56:26.901Z,96.47
2023-02-14T16:58:57.619Z,89.65
2023-02-14T17:01:26.704Z,91.78
2023-02-14T17:03:53.957Z,92.60
2023-02-14T17:06:23.221Z,99.10
2023-02-14T17:08:52.701Z,92.03
2023-02-14T17:11:23.542Z,98.80
2023-02-14T17:13:52.645Z,103.35
2023-02-14T17:16:19.950Z,104.82
2023-02-14T17:18:50.114Z,104.07
2023-02-14T17:21:22.036Z,99.05
2023-02-14T17:23:49.447Z,99.45
2023-02-14T17:26:18.546Z,101.85
2023-02-14T17:28:46.695Z,102.07
2023-02-14T17:31:14.689Z,106.60
2023-02-14T17:33:41.878Z,105.10
2023-02-14T17:36:12.296Z,103.00
2023-02-14T17:38:40.699Z,104.78
2023-02-14T17:41:25.305Z,99.53
2023-02-14T17:43:54.822Z,100.13
2023-02-14T17:46:22.156Z,104.63
2023-02-14T17:48:50.326Z,108.20
2023-02-14T17:51:20.360Z,110.15
2023-02-14T17:53:48.512Z,114.80
2023-02-14T17:56:19.375Z,117.32
2023-02-14T17:58:48.164Z,121.32
2023-02-14T18:01:17.918Z,120.95
2023-02-14T18:03:46.066Z,118.80
2023-02-14T18:06:14.296Z,119.47
2023-02-14T18:08:46.605Z,115.80
2023-02-14T18:11:14.173Z,124.32
2023-02-14T18:13:41.700Z,124.70
2023-02-14T18:16:14.152Z,127.70
2023-02-14T18:18:42.052Z,120.18
2023-02-14T18:21:11.177Z,125.18
2023-02-14T18:23:38.888Z,121.82
2023-02-14T18:26:11.207Z,124.15
2023-02-14T18:28:38.806Z,121.72
2023-02-14T18:31:11.073Z,114.53
2023-02-14T18:33:39.251Z,121.93
2023-02-14T18:36:10.248Z,135.60
2023-02-14T18:38:38.824Z,133.15
2023-02-14T18:41:07.964Z,137.35
2023-02-14T18:43:36.233Z,139.55
2023-02-14T18:46:11.146Z,125.75
2023-02-14T18:48:38.890Z,145.68
2023-02-14T18:51:12.052Z,144.50
2023-02-14T18:53:40.367Z,143.65
2023-02-14T18:56:12.674Z,140.10
2023-02-14T18:58:41.343Z,133.50
2023-02-14T19:01:14.276Z,128.80
2023-02-14T19:03:41.359Z,130.15
2023-02-14T19:06:09.561Z,143.02
2023-02-14T19:08:38.145Z,132.50
2023-02-14T19:11:14.107Z,136.38
2023-02-14T19:13:45.820Z,128.52
2023-02-14T19:16:15.289Z,125.10
2023-02-14T19:18:42.899Z,135.63
2023-02-14T19:21:15.305Z,137.65
2023-02-14T19:23:42.708Z,133.85
2023-02-14T19:26:23.773Z,133.65
2023-02-14T19:28:55.949Z,134.35
2023-02-14T19:31:23.531Z,132.38
2023-02-14T19:33:51.464Z,133.55
2023-02-14T19:36:20.293Z,132.52
2023-02-14T19:38:49.428Z,130.88
2023-02-14T19:41:17.893Z,130.50
2023-02-14T19:43:46.077Z,117.00
2023-02-14T19:46:14.575Z,113.95
2023-02-14T19:48:42.181Z,124.65
2023-02-14T19:51:22.077Z,122.13
2023-02-14T19:53:50.723Z,120.38
2023-02-14T19:56:23.236Z,127.38
2023-02-14T19:58:51.806Z,138.98
2023-02-14T20:01:30.851Z,136.13
2023-02-14T20:03:58.259Z,129.82
2023-02-14T20:06:26.761Z,138.38
2023-02-14T20:08:53.799Z,130.40
2023-02-14T20:11:29.626Z,137.15
2023-02-14T20:13:57.038Z,133.95
2023-02-14T20:16:25.800Z,127.00
2023-02-14T20:18:53.611Z,135.30
2023-02-14T20:21:28.613Z,143.88
2023-02-14T20:24:03.406Z,139.27
2023-02-14T20:26:32.131Z,137.68
2023-02-14T20:29:00.815Z,139.10
2023-02-14T20:31:27.833Z,132.82
2023-02-14T20:33:56.922Z,140.15
2023-02-14T20:36:24.875Z,146.95
2023-02-14T20:39:00.553Z,146.00
2023-02-14T20:41:28.476Z,144.40
2023-02-14T20:44:03.313Z,149.43
2023-02-14T20:46:31.848Z,139.90
2023-02-14T20:48:58.743Z,140.77
2023-02-14T20:51:26.780Z,143.48
2023-02-14T20:53:54.250Z,136.88
2023-02-14T20:56:25.371Z,131.40
2023-02-14T20:58:52.486Z,130.73
2023-02-14T21:01:24.561Z,134.30
2023-02-14T21:03:53.837Z,141.75
2023-02-14T21:06:23.293Z,157.88
2023-02-14T21:08:51.099Z,161.38
2023-02-14T21:11:20.312Z,159.07
2023-02-14T21:13:47.377Z,159.48
2023-02-14T21:16:19.470Z,161.68
2023-02-14T21:18:51.723Z,142.93
2023-02-14T21:21:21.122Z,150.13
2023-02-14T21:23:50.300Z,149.68
2023-02-14T21:26:18.259Z,136.93
2023-02-14T21:28:45.552Z,145.43
2023-02-14T21:31:15.312Z,154.48
2023-02-14T21:33:42.738Z,141.40
2023-02-14T21:36:12.783Z,150.68
2023-02-14T21:38:40.113Z,142.40
2023-02-14T21:41:14.157Z,150.75
2023-02-14T21:43:43.601Z,153.82
2023-02-14T21:46:13.634Z,162.23
2023-02-14T21:49:00.051Z,152.43
2023-02-14T21:51:27.995Z,147.45
2023-02-14T21:53:55.902Z,148.13
2023-02-14T21:56:24.223Z,146.60
2023-02-14T21:58:53.125Z,140.63
2023-02-14T22:01:23.530Z,135.18
2023-02-14T22:03:51.568Z,151.68
2023-02-14T22:06:19.190Z,129.77
2023-02-14T22:08:46.670Z,134.88
2023-02-14T22:11:15.766Z,139.10
2023-02-14T22:13:42.862Z,145.35
2023-02-14T22:16:13.490Z,144.02
2023-02-14T22:18:41.902Z,132.80
2023-02-14T22:21:15.354Z,130.32
2023-02-14T22:23:44.541Z,125.35
2023-02-14T22:26:25.992Z,123.65
2023-02-14T22:28:57.110Z,146.98
2023-02-14T22:31:26.284Z,147.48
2023-02-14T22:33:53.843Z,150.43
2023-02-14T22:36:21.516Z,159.05
2023-02-14T22:38:48.754Z,146.02
2023-02-14T22:41:18.628Z,152.55
2023-02-14T22:43:48.766Z,129.98
2023-02-14T22:46:22.347Z,126.60
2023-02-14T22:48:50.774Z,130.63
2023-02-14T22:51:33.015Z,122.22
2023-02-14T22:54:08.866Z,126.20
2023-02-14T22:56:41.332Z,114.97
2023-02-14T22:59:16.138Z,109.25
2023-02-14T23:01:43.910Z,111.82
2023-02-14T23:04:11.484Z,111.80
2023-02-14T23:06:39.537Z,111.20
2023-02-14T23:09:07.975Z,99.57
2023-02-14T23:11:37.171Z,101.57
2023-02-14T23:14:24.141Z,104.07
2023-02-14T23:17:10.369Z,109.55
2023-02-14T23:19:56.524Z,107.13
2023-02-14T23:22:25.053Z,113.88
2023-02-14T23:24:54.180Z,108.50
2023-02-14T23:27:25.030Z,98.70
2023-02-14T23:29:53.207Z,115.75
2023-02-14T23:32:20.200Z,109.03
2023-02-14T23:34:47.596Z,99.82
2023-02-14T23:37:14.957Z,112.93
2023-02-14T23:39:42.209Z,121.10
2023-02-14T23:42:16.303Z,127.68
2023-02-14T23:44:44.682Z,116.35
2023-02-14T23:47:13.459Z,126.55
2023-02-14T23:49:41.502Z,125.22
2023-02-14T23:52:10.686Z,132.38
2023-02-14T23:54:38.582Z,114.50
2023-02-14T23:57:07.426Z,104.35
2023-02-14T23:59:35.155Z,98.30
